sensor_id;sensor_type;location;lat;lon;timestamp;pressure;altitude;pressure_sealevel;temperature;humidity
80945;BME280;70400;50.934;11.590;2024-02-23T00:00:19;97257.22;;;11.69;63.03
80945;BME280;70400;50.934;11.590;2024-02-23T00:01:10;97260.16;;;11.61;63.43
80945;BME280;70400;50.934;11.590;2024-02-23T00:02:02;97255.06;;;11.60;63.55
80945;BME280;70400;50.934;11.590;2024-02-23T00:02:53;97263.00;;;11.60;63.49
80945;BME280;70400;50.934;11.590;2024-02-23T00:03:46;97260.78;;;11.57;63.84
80945;BME280;70400;50.934;11.590;2024-02-23T00:04:37;97269.75;;;11.56;63.58
80945;BME280;70400;50.934;11.590;2024-02-23T00:05:28;97259.41;;;11.54;63.89
80945;BME280;70400;50.934;11.590;2024-02-23T00:06:19;97253.91;;;11.56;64.05
80945;BME280;70400;50.934;11.590;2024-02-23T00:07:10;97268.13;;;11.55;63.66
80945;BME280;70400;50.934;11.590;2024-02-23T00:08:01;97275.31;;;11.47;63.88
80945;BME280;70400;50.934;11.590;2024-02-23T00:08:55;97276.03;;;11.55;63.69
80945;BME280;70400;50.934;11.590;2024-02-23T00:09:46;97274.63;;;11.52;63.50
80945;BME280;70400;50.934;11.590;2024-02-23T00:10:37;97267.97;;;11.49;63.48
80945;BME280;70400;50.934;11.590;2024-02-23T00:11:28;97286.66;;;11.48;63.58
80945;BME280;70400;50.934;11.590;2024-02-23T00:12:19;97285.47;;;11.44;63.47
80945;BME280;70400;50.934;11.590;2024-02-23T00:13:10;97286.25;;;11.44;63.88
80945;BME280;70400;50.934;11.590;2024-02-23T00:14:01;97286.66;;;11.48;63.56
80945;BME280;70400;50.934;11.590;2024-02-23T00:14:53;97274.72;;;11.45;64.03
80945;BME280;70400;50.934;11.590;2024-02-23T00:15:44;97284.28;;;11.40;63.02
80945;BME280;70400;50.934;11.590;2024-02-23T00:16:41;97291.38;;;11.39;62.93
80945;BME280;70400;50.934;11.590;2024-02-23T00:17:32;97299.91;;;11.41;62.84
80945;BME280;70400;50.934;11.590;2024-02-23T00:18:23;97295.84;;;11.39;62.72
80945;BME280;70400;50.934;11.590;2024-02-23T00:19:15;97286.09;;;11.39;62.68
80945;BME280;70400;50.934;11.590;2024-02-23T00:20:09;97290.38;;;11.40;62.48
80945;BME280;70400;50.934;11.590;2024-02-23T00:21:02;97274.53;;;11.40;62.33
80945;BME280;70400;50.934;11.590;2024-02-23T00:21:52;97297.25;;;11.41;62.37
80945;BME280;70400;50.934;11.590;2024-02-23T00:22:43;97293.81;;;11.41;62.60
80945;BME280;70400;50.934;11.590;2024-02-23T00:23:34;97289.38;;;11.35;62.45
80945;BME280;70400;50.934;11.590;2024-02-23T00:24:25;97300.97;;;11.34;62.54
80945;BME280;70400;50.934;11.590;2024-02-23T00:25:16;97314.16;;;11.34;62.69
80945;BME280;70400;50.934;11.590;2024-02-23T00:26:07;97327.16;;;11.35;62.50
80945;BME280;70400;50.934;11.590;2024-02-23T00:26:59;97332.44;;;11.35;61.67
80945;BME280;70400;50.934;11.590;2024-02-23T00:27:50;97340.34;;;11.35;62.37
80945;BME280;70400;50.934;11.590;2024-02-23T00:28:40;97342.38;;;11.33;62.15
80945;BME280;70400;50.934;11.590;2024-02-23T00:29:31;97349.50;;;11.33;62.17
80945;BME280;70400;50.934;11.590;2024-02-23T00:30:22;97341.19;;;11.29;62.25
80945;BME280;70400;50.934;11.590;2024-02-23T00:31:13;97357.25;;;11.27;61.97
80945;BME280;70400;50.934;11.590;2024-02-23T00:32:05;97352.75;;;11.28;62.22
80945;BME280;70400;50.934;11.590;2024-02-23T00:32:56;97345.44;;;11.30;61.57
80945;BME280;70400;50.934;11.590;2024-02-23T00:33:47;97336.69;;;11.29;61.35
80945;BME280;70400;50.934;11.590;2024-02-23T00:34:37;97325.78;;;11.26;61.49
80945;BME280;70400;50.934;11.590;2024-02-23T00:35:29;97338.53;;;11.29;61.74
80945;BME280;70400;50.934;11.590;2024-02-23T00:36:20;97343.66;;;11.24;61.64
80945;BME280;70400;50.934;11.590;2024-02-23T00:37:11;97344.25;;;11.26;61.68
80945;BME280;70400;50.934;11.590;2024-02-23T00:38:02;97343.88;;;11.22;61.61
80945;BME280;70400;50.934;11.590;2024-02-23T00:38:53;97340.63;;;11.20;61.35
80945;BME280;70400;50.934;11.590;2024-02-23T00:39:44;97343.47;;;11.19;61.63
80945;BME280;70400;50.934;11.590;2024-02-23T00:40:35;97344.28;;;11.19;61.29
80945;BME280;70400;50.934;11.590;2024-02-23T00:41:26;97344.72;;;11.16;61.44
80945;BME280;70400;50.934;11.590;2024-02-23T00:42:17;97337.41;;;11.18;60.95
80945;BME280;70400;50.934;11.590;2024-02-23T00:43:07;97341.47;;;11.14;61.10
80945;BME280;70400;50.934;11.590;2024-02-23T00:43:58;97347.56;;;11.15;61.02
80945;BME280;70400;50.934;11.590;2024-02-23T00:44:49;97375.56;;;11.16;60.83
80945;BME280;70400;50.934;11.590;2024-02-23T00:45:40;97370.72;;;11.13;61.19
80945;BME280;70400;50.934;11.590;2024-02-23T00:46:31;97366.88;;;11.08;61.25
80945;BME280;70400;50.934;11.590;2024-02-23T00:47:22;97376.19;;;11.11;61.10
80945;BME280;70400;50.934;11.590;2024-02-23T00:48:13;97364.22;;;11.08;61.05
80945;BME280;70400;50.934;11.590;2024-02-23T00:49:05;97367.84;;;11.14;60.53
80945;BME280;70400;50.934;11.590;2024-02-23T00:49:56;97373.16;;;11.07;60.85
80945;BME280;70400;50.934;11.590;2024-02-23T00:50:47;97390.00;;;11.06;60.89
80945;BME280;70400;50.934;11.590;2024-02-23T00:51:38;97386.19;;;11.02;60.72
80945;BME280;70400;50.934;11.590;2024-02-23T00:52:29;97408.06;;;11.03;60.54
80945;BME280;70400;50.934;11.590;2024-02-23T00:53:20;97396.13;;;11.00;59.93
80945;BME280;70400;50.934;11.590;2024-02-23T00:54:11;97408.50;;;11.00;59.55
80945;BME280;70400;50.934;11.590;2024-02-23T00:55:02;97407.28;;;11.02;59.25
80945;BME280;70400;50.934;11.590;2024-02-23T00:55:53;97404.03;;;11.00;59.03
80945;BME280;70400;50.934;11.590;2024-02-23T00:56:45;97410.34;;;10.99;58.65
80945;BME280;70400;50.934;11.590;2024-02-23T00:57:42;97413.97;;;10.98;57.54
80945;BME280;70400;50.934;11.590;2024-02-23T00:58:33;97407.28;;;10.96;58.16
80945;BME280;70400;50.934;11.590;2024-02-23T00:59:24;97426.97;;;10.93;57.98
80945;BME280;70400;50.934;11.590;2024-02-23T01:00:15;97436.53;;;10.94;57.87
80945;BME280;70400;50.934;11.590;2024-02-23T01:01:06;97440.78;;;10.95;58.15
80945;BME280;70400;50.934;11.590;2024-02-23T01:01:57;97440.38;;;10.92;57.65
80945;BME280;70400;50.934;11.590;2024-02-23T01:02:48;97447.06;;;10.94;57.64
80945;BME280;70400;50.934;11.590;2024-02-23T01:03:39;97458.44;;;10.88;57.27
80945;BME280;70400;50.934;11.590;2024-02-23T01:04:30;97464.31;;;10.83;57.31
80945;BME280;70400;50.934;11.590;2024-02-23T01:05:21;97464.13;;;10.85;56.86
80945;BME280;70400;50.934;11.590;2024-02-23T01:06:12;97474.28;;;10.81;57.44
80945;BME280;70400;50.934;11.590;2024-02-23T01:07:03;97463.94;;;10.80;57.18
80945;BME280;70400;50.934;11.590;2024-02-23T01:07:53;97469.41;;;10.78;57.03
80945;BME280;70400;50.934;11.590;2024-02-23T01:08:44;97473.47;;;10.74;57.03
80945;BME280;70400;50.934;11.590;2024-02-23T01:09:35;97481.81;;;10.71;57.10
80945;BME280;70400;50.934;11.590;2024-02-23T01:10:26;97467.22;;;10.69;56.85
80945;BME280;70400;50.934;11.590;2024-02-23T01:11:17;97462.94;;;10.68;56.59
80945;BME280;70400;50.934;11.590;2024-02-23T01:12:09;97461.53;;;10.72;56.32
80945;BME280;70400;50.934;11.590;2024-02-23T01:13:00;97478.38;;;10.64;55.86
80945;BME280;70400;50.934;11.590;2024-02-23T01:13:51;97479.38;;;10.63;55.47
80945;BME280;70400;50.934;11.590;2024-02-23T01:14:42;97488.91;;;10.64;55.62
80945;BME280;70400;50.934;11.590;2024-02-23T01:15:33;97479.38;;;10.63;54.74
80945;BME280;70400;50.934;11.590;2024-02-23T01:16:25;97501.28;;;10.63;54.73
80945;BME280;70400;50.934;11.590;2024-02-23T01:17:16;97506.94;;;10.60;55.44
80945;BME280;70400;50.934;11.590;2024-02-23T01:18:09;97513.63;;;10.63;54.65
80945;BME280;70400;50.934;11.590;2024-02-23T01:19:00;97519.72;;;10.57;55.05
80945;BME280;70400;50.934;11.590;2024-02-23T01:19:53;97533.72;;;10.51;55.35
80945;BME280;70400;50.934;11.590;2024-02-23T01:20:44;97541.41;;;10.52;54.96
80945;BME280;70400;50.934;11.590;2024-02-23T01:21:35;97547.28;;;10.48;55.18
80945;BME280;70400;50.934;11.590;2024-02-23T01:22:26;97541.03;;;10.49;55.20
80945;BME280;70400;50.934;11.590;2024-02-23T01:23:17;97539.38;;;10.48;55.04
80945;BME280;70400;50.934;11.590;2024-02-23T01:24:08;97541.41;;;10.46;55.40
80945;BME280;70400;50.934;11.590;2024-02-23T01:24:59;97543.47;;;10.43;55.60
80945;BME280;70400;50.934;11.590;2024-02-23T01:25:50;97535.31;;;10.45;55.86
80945;BME280;70400;50.934;11.590;2024-02-23T01:26:40;97539.19;;;10.36;56.05
80945;BME280;70400;50.934;11.590;2024-02-23T01:27:33;97547.28;;;10.34;56.42
80945;BME280;70400;50.934;11.590;2024-02-23T01:28:24;97544.47;;;10.36;56.31
80945;BME280;70400;50.934;11.590;2024-02-23T01:29:14;97530.69;;;10.34;56.91
80945;BME280;70400;50.934;11.590;2024-02-23T01:30:08;97541.63;;;10.31;57.30
80945;BME280;70400;50.934;11.590;2024-02-23T01:30:59;97530.84;;;10.26;57.84
80945;BME280;70400;50.934;11.590;2024-02-23T01:31:49;97547.03;;;10.22;58.11
80945;BME280;70400;50.934;11.590;2024-02-23T01:32:41;97542.41;;;10.18;58.43
80945;BME280;70400;50.934;11.590;2024-02-23T01:33:32;97551.72;;;10.20;58.51
80945;BME280;70400;50.934;11.590;2024-02-23T01:34:23;97545.84;;;10.18;58.90
80945;BME280;70400;50.934;11.590;2024-02-23T01:35:13;97557.34;;;10.17;59.10
80945;BME280;70400;50.934;11.590;2024-02-23T01:36:05;97563.06;;;10.21;58.53
80945;BME280;70400;50.934;11.590;2024-02-23T01:36:56;97570.97;;;10.21;58.77
80945;BME280;70400;50.934;11.590;2024-02-23T01:37:47;97561.41;;;10.20;57.93
80945;BME280;70400;50.934;11.590;2024-02-23T01:38:38;97545.63;;;10.13;57.82
80945;BME280;70400;50.934;11.590;2024-02-23T01:39:29;97556.34;;;10.12;58.27
80945;BME280;70400;50.934;11.590;2024-02-23T01:40:20;97553.53;;;10.13;58.21
80945;BME280;70400;50.934;11.590;2024-02-23T01:41:11;97566.66;;;10.07;58.32
80945;BME280;70400;50.934;11.590;2024-02-23T01:42:03;97558.59;;;10.08;58.77
80945;BME280;70400;50.934;11.590;2024-02-23T01:43:06;97563.41;;;10.05;59.16
80945;BME280;70400;50.934;11.590;2024-02-23T01:43:56;97568.09;;;10.03;59.34
80945;BME280;70400;50.934;11.590;2024-02-23T01:44:48;97565.84;;;9.93;59.66
80945;BME280;70400;50.934;11.590;2024-02-23T01:45:39;97571.09;;;9.93;60.12
80945;BME280;70400;50.934;11.590;2024-02-23T01:46:30;97580.00;;;9.85;60.21
80945;BME280;70400;50.934;11.590;2024-02-23T01:47:21;97566.22;;;9.83;60.28
80945;BME280;70400;50.934;11.590;2024-02-23T01:48:12;97567.00;;;9.84;60.57
80945;BME280;70400;50.934;11.590;2024-02-23T01:49:05;97561.97;;;9.82;60.32
80945;BME280;70400;50.934;11.590;2024-02-23T01:49:58;97571.06;;;9.80;60.20
80945;BME280;70400;50.934;11.590;2024-02-23T01:50:50;97573.66;;;9.73;60.52
80945;BME280;70400;50.934;11.590;2024-02-23T01:51:41;97576.69;;;9.70;60.86
80945;BME280;70400;50.934;11.590;2024-02-23T01:52:32;97576.66;;;9.63;60.58
80945;BME280;70400;50.934;11.590;2024-02-23T01:53:24;97583.16;;;9.67;60.28
80945;BME280;70400;50.934;11.590;2024-02-23T01:54:16;97583.56;;;9.64;60.34
80945;BME280;70400;50.934;11.590;2024-02-23T01:55:07;97605.00;;;9.61;60.41
80945;BME280;70400;50.934;11.590;2024-02-23T01:55:59;97594.09;;;9.64;60.41
80945;BME280;70400;50.934;11.590;2024-02-23T01:56:51;97608.63;;;9.60;60.66
80945;BME280;70400;50.934;11.590;2024-02-23T01:57:44;97612.25;;;9.59;60.34
80945;BME280;70400;50.934;11.590;2024-02-23T01:58:40;97608.19;;;9.56;60.13
80945;BME280;70400;50.934;11.590;2024-02-23T01:59:31;97618.94;;;9.55;60.33
80945;BME280;70400;50.934;11.590;2024-02-23T02:00:22;97614.25;;;9.50;60.60
80945;BME280;70400;50.934;11.590;2024-02-23T02:01:18;97622.53;;;9.47;60.32
80945;BME280;70400;50.934;11.590;2024-02-23T02:02:08;97620.47;;;9.43;60.39
80945;BME280;70400;50.934;11.590;2024-02-23T02:02:59;97632.84;;;9.42;60.69
80945;BME280;70400;50.934;11.590;2024-02-23T02:03:50;97622.50;;;9.41;60.62
80945;BME280;70400;50.934;11.590;2024-02-23T02:04:41;97623.91;;;9.37;60.69
80945;BME280;70400;50.934;11.590;2024-02-23T02:05:32;97642.09;;;9.31;60.66
80945;BME280;70400;50.934;11.590;2024-02-23T02:06:23;97627.28;;;9.30;60.02
80945;BME280;70400;50.934;11.590;2024-02-23T02:07:15;97643.06;;;9.30;59.57
80945;BME280;70400;50.934;11.590;2024-02-23T02:08:09;97652.38;;;9.33;59.36
80945;BME280;70400;50.934;11.590;2024-02-23T02:09:01;97653.41;;;9.32;59.59
80945;BME280;70400;50.934;11.590;2024-02-23T02:09:52;97647.53;;;9.30;59.83
80945;BME280;70400;50.934;11.590;2024-02-23T02:10:43;97659.81;;;9.23;59.42
80945;BME280;70400;50.934;11.590;2024-02-23T02:11:47;97657.38;;;9.21;59.11
80945;BME280;70400;50.934;11.590;2024-02-23T02:12:38;97652.13;;;9.21;59.41
80945;BME280;70400;50.934;11.590;2024-02-23T02:13:29;97650.72;;;9.25;59.30
80945;BME280;70400;50.934;11.590;2024-02-23T02:14:20;97651.75;;;9.24;59.34
80945;BME280;70400;50.934;11.590;2024-02-23T02:15:11;97644.00;;;9.16;59.63
80945;BME280;70400;50.934;11.590;2024-02-23T02:16:02;97658.59;;;9.19;59.28
80945;BME280;70400;50.934;11.590;2024-02-23T02:16:53;97662.41;;;9.16;59.53
80945;BME280;70400;50.934;11.590;2024-02-23T02:17:43;97658.13;;;9.15;59.60
80945;BME280;70400;50.934;11.590;2024-02-23T02:18:35;97658.53;;;9.12;59.67
80945;BME280;70400;50.934;11.590;2024-02-23T02:19:26;97661.78;;;9.14;59.52
80945;BME280;70400;50.934;11.590;2024-02-23T02:20:17;97655.28;;;9.10;59.87
80945;BME280;70400;50.934;11.590;2024-02-23T02:21:09;97657.91;;;9.10;59.70
80945;BME280;70400;50.934;11.590;2024-02-23T02:22:00;97656.47;;;9.07;59.83
80945;BME280;70400;50.934;11.590;2024-02-23T02:22:51;97676.06;;;9.05;59.78
80945;BME280;70400;50.934;11.590;2024-02-23T02:23:42;97661.31;;;9.04;59.49
80945;BME280;70400;50.934;11.590;2024-02-23T02:24:32;97663.94;;;9.04;59.58
80945;BME280;70400;50.934;11.590;2024-02-23T02:25:23;97671.75;;;8.97;59.64
80945;BME280;70400;50.934;11.590;2024-02-23T02:26:14;97666.75;;;9.02;59.51
80945;BME280;70400;50.934;11.590;2024-02-23T02:27:05;97680.50;;;9.04;59.63
80945;BME280;70400;50.934;11.590;2024-02-23T02:27:57;97671.81;;;9.04;59.10
80945;BME280;70400;50.934;11.590;2024-02-23T02:28:47;97663.31;;;9.02;59.76
80945;BME280;70400;50.934;11.590;2024-02-23T02:29:38;97654.78;;;9.00;59.70
80945;BME280;70400;50.934;11.590;2024-02-23T02:30:29;97667.94;;;9.00;59.33
80945;BME280;70400;50.934;11.590;2024-02-23T02:31:20;97664.31;;;9.01;59.50
80945;BME280;70400;50.934;11.590;2024-02-23T02:32:11;97666.56;;;9.04;59.84
80945;BME280;70400;50.934;11.590;2024-02-23T02:33:02;97672.00;;;9.02;59.10
80945;BME280;70400;50.934;11.590;2024-02-23T02:33:53;97671.56;;;8.99;58.86
80945;BME280;70400;50.934;11.590;2024-02-23T02:34:44;97672.56;;;8.98;59.04
80945;BME280;70400;50.934;11.590;2024-02-23T02:35:35;97668.31;;;8.97;59.04
80945;BME280;70400;50.934;11.590;2024-02-23T02:36:25;97663.63;;;8.92;59.55
80945;BME280;70400;50.934;11.590;2024-02-23T02:37:16;97676.59;;;8.94;59.42
80945;BME280;70400;50.934;11.590;2024-02-23T02:38:07;97665.63;;;8.90;59.42
80945;BME280;70400;50.934;11.590;2024-02-23T02:38:58;97669.91;;;8.91;59.06
80945;BME280;70400;50.934;11.590;2024-02-23T02:39:49;97666.47;;;8.90;59.23
80945;BME280;70400;50.934;11.590;2024-02-23T02:40:40;97670.06;;;8.89;59.59
80945;BME280;70400;50.934;11.590;2024-02-23T02:41:31;97675.09;;;8.84;59.79
80945;BME280;70400;50.934;11.590;2024-02-23T02:42:22;97681.59;;;8.88;59.80
80945;BME280;70400;50.934;11.590;2024-02-23T02:43:13;97672.06;;;8.87;59.84
80945;BME280;70400;50.934;11.590;2024-02-23T02:44:04;97670.59;;;8.78;59.55
80945;BME280;70400;50.934;11.590;2024-02-23T02:44:55;97674.22;;;8.77;59.45
80945;BME280;70400;50.934;11.590;2024-02-23T02:45:46;97685.09;;;8.74;59.61
80945;BME280;70400;50.934;11.590;2024-02-23T02:46:37;97684.28;;;8.74;59.51
80945;BME280;70400;50.934;11.590;2024-02-23T02:47:28;97691.00;;;8.76;58.88
80945;BME280;70400;50.934;11.590;2024-02-23T02:48:19;97693.78;;;8.75;58.73
80945;BME280;70400;50.934;11.590;2024-02-23T02:49:10;97695.19;;;8.71;59.21
80945;BME280;70400;50.934;11.590;2024-02-23T02:50:03;97701.25;;;8.71;58.67
80945;BME280;70400;50.934;11.590;2024-02-23T02:50:57;97706.38;;;8.58;59.29
80945;BME280;70400;50.934;11.590;2024-02-23T02:51:48;97696.31;;;8.61;58.85
80945;BME280;70400;50.934;11.590;2024-02-23T02:52:39;97692.06;;;8.60;58.96
80945;BME280;70400;50.934;11.590;2024-02-23T02:53:29;97701.31;;;8.56;59.17
80945;BME280;70400;50.934;11.590;2024-02-23T02:54:21;97695.66;;;8.59;59.24
80945;BME280;70400;50.934;11.590;2024-02-23T02:55:12;97708.25;;;8.64;58.68
80945;BME280;70400;50.934;11.590;2024-02-23T02:56:06;97706.63;;;8.63;58.89
80945;BME280;70400;50.934;11.590;2024-02-23T02:56:57;97710.25;;;8.62;58.70
80945;BME280;70400;50.934;11.590;2024-02-23T02:57:48;97717.06;;;8.56;58.49
80945;BME280;70400;50.934;11.590;2024-02-23T02:58:39;97720.50;;;8.57;58.77
80945;BME280;70400;50.934;11.590;2024-02-23T02:59:34;97721.06;;;8.52;58.76
80945;BME280;70400;50.934;11.590;2024-02-23T03:00:26;97721.88;;;8.53;58.78
80945;BME280;70400;50.934;11.590;2024-02-23T03:01:17;97728.31;;;8.50;58.33
80945;BME280;70400;50.934;11.590;2024-02-23T03:02:07;97727.50;;;8.50;58.29
80945;BME280;70400;50.934;11.590;2024-02-23T03:02:58;97727.50;;;8.50;58.57
80945;BME280;70400;50.934;11.590;2024-02-23T03:03:49;97730.50;;;8.46;58.27
80945;BME280;70400;50.934;11.590;2024-02-23T03:04:47;97736.28;;;8.42;58.43
80945;BME280;70400;50.934;11.590;2024-02-23T03:05:38;97733.50;;;8.43;58.70
80945;BME280;70400;50.934;11.590;2024-02-23T03:06:29;97733.75;;;8.48;58.57
80945;BME280;70400;50.934;11.590;2024-02-23T03:07:20;97741.63;;;8.48;58.15
80945;BME280;70400;50.934;11.590;2024-02-23T03:08:11;97753.69;;;8.43;58.23
80945;BME280;70400;50.934;11.590;2024-02-23T03:09:02;97761.75;;;8.41;58.05
80945;BME280;70400;50.934;11.590;2024-02-23T03:09:53;97759.75;;;8.43;57.88
80945;BME280;70400;50.934;11.590;2024-02-23T03:10:44;97758.50;;;8.39;57.93
80945;BME280;70400;50.934;11.590;2024-02-23T03:11:36;97756.31;;;8.43;57.54
80945;BME280;70400;50.934;11.590;2024-02-23T03:12:27;97760.66;;;8.36;57.81
80945;BME280;70400;50.934;11.590;2024-02-23T03:13:18;97761.66;;;8.35;57.47
80945;BME280;70400;50.934;11.590;2024-02-23T03:14:09;97763.00;;;8.31;57.64
80945;BME280;70400;50.934;11.590;2024-02-23T03:15:01;97768.69;;;8.34;57.75
80945;BME280;70400;50.934;11.590;2024-02-23T03:15:53;97768.53;;;8.36;57.53
80945;BME280;70400;50.934;11.590;2024-02-23T03:16:44;97765.38;;;8.25;58.12
80945;BME280;70400;50.934;11.590;2024-02-23T03:17:38;97772.72;;;8.30;57.62
80945;BME280;70400;50.934;11.590;2024-02-23T03:18:29;97771.69;;;8.31;57.50
80945;BME280;70400;50.934;11.590;2024-02-23T03:19:20;97777.50;;;8.26;57.09
80945;BME280;70400;50.934;11.590;2024-02-23T03:20:15;97781.22;;;8.32;56.99
80945;BME280;70400;50.934;11.590;2024-02-23T03:21:09;97775.72;;;8.27;57.48
80945;BME280;70400;50.934;11.590;2024-02-23T03:22:00;97778.06;;;8.22;57.19
80945;BME280;70400;50.934;11.590;2024-02-23T03:22:51;97770.34;;;8.20;57.50
80945;BME280;70400;50.934;11.590;2024-02-23T03:23:42;97768.91;;;8.18;56.87
80945;BME280;70400;50.934;11.590;2024-02-23T03:24:33;97772.53;;;8.17;57.55
80945;BME280;70400;50.934;11.590;2024-02-23T03:25:24;97766.19;;;8.11;57.31
80945;BME280;70400;50.934;11.590;2024-02-23T03:26:15;97774.91;;;8.12;57.44
80945;BME280;70400;50.934;11.590;2024-02-23T03:27:08;97778.50;;;8.11;57.68
80945;BME280;70400;50.934;11.590;2024-02-23T03:27:58;97778.97;;;8.14;57.79
80945;BME280;70400;50.934;11.590;2024-02-23T03:28:49;97780.59;;;8.15;57.55
80945;BME280;70400;50.934;11.590;2024-02-23T03:29:40;97787.84;;;8.13;57.46
80945;BME280;70400;50.934;11.590;2024-02-23T03:30:31;97791.25;;;8.14;58.13
80945;BME280;70400;50.934;11.590;2024-02-23T03:31:26;97783.50;;;8.05;57.94
80945;BME280;70400;50.934;11.590;2024-02-23T03:32:17;97788.94;;;8.04;57.58
80945;BME280;70400;50.934;11.590;2024-02-23T03:33:08;97790.91;;;8.02;57.80
80945;BME280;70400;50.934;11.590;2024-02-23T03:33:58;97794.72;;;7.99;58.21
80945;BME280;70400;50.934;11.590;2024-02-23T03:34:49;97793.28;;;7.97;58.48
80945;BME280;70400;50.934;11.590;2024-02-23T03:35:40;97802.59;;;7.99;58.33
80945;BME280;70400;50.934;11.590;2024-02-23T03:36:31;97809.66;;;7.99;58.61
80945;BME280;70400;50.934;11.590;2024-02-23T03:37:22;97811.81;;;7.95;58.55
80945;BME280;70400;50.934;11.590;2024-02-23T03:38:13;97811.00;;;7.95;58.99
80945;BME280;70400;50.934;11.590;2024-02-23T03:39:04;97804.31;;;7.92;59.14
80945;BME280;70400;50.934;11.590;2024-02-23T03:39:55;97806.28;;;7.90;59.54
80945;BME280;70400;50.934;11.590;2024-02-23T03:40:45;97809.28;;;7.87;59.72
80945;BME280;70400;50.934;11.590;2024-02-23T03:41:36;97814.81;;;7.92;59.43
80945;BME280;70400;50.934;11.590;2024-02-23T03:42:27;97815.97;;;7.90;59.88
80945;BME280;70400;50.934;11.590;2024-02-23T03:43:18;97814.16;;;7.90;59.53
80945;BME280;70400;50.934;11.590;2024-02-23T03:44:09;97813.00;;;7.93;59.66
80945;BME280;70400;50.934;11.590;2024-02-23T03:45:00;97824.03;;;7.88;59.89
80945;BME280;70400;50.934;11.590;2024-02-23T03:45:51;97820.41;;;7.89;60.22
80945;BME280;70400;50.934;11.590;2024-02-23T03:46:41;97832.09;;;7.87;60.15
80945;BME280;70400;50.934;11.590;2024-02-23T03:47:32;97818.50;;;7.83;60.07
80945;BME280;70400;50.934;11.590;2024-02-23T03:48:24;97831.28;;;7.86;60.75
80945;BME280;70400;50.934;11.590;2024-02-23T03:49:14;97827.53;;;7.80;61.31
80945;BME280;70400;50.934;11.590;2024-02-23T03:50:05;97835.94;;;7.76;61.49
80945;BME280;70400;50.934;11.590;2024-02-23T03:50:57;97826.72;;;7.80;61.48
80945;BME280;70400;50.934;11.590;2024-02-23T03:51:48;97836.41;;;7.79;61.65
80945;BME280;70400;50.934;11.590;2024-02-23T03:52:38;97836.59;;;7.78;61.46
80945;BME280;70400;50.934;11.590;2024-02-23T03:53:29;97843.00;;;7.75;61.80
80945;BME280;70400;50.934;11.590;2024-02-23T03:54:20;97844.38;;;7.71;62.13
80945;BME280;70400;50.934;11.590;2024-02-23T03:55:11;97857.75;;;7.76;62.23
80945;BME280;70400;50.934;11.590;2024-02-23T03:56:02;97850.50;;;7.78;62.10
80945;BME280;70400;50.934;11.590;2024-02-23T03:56:53;97860.56;;;7.75;62.12
80945;BME280;70400;50.934;11.590;2024-02-23T03:57:44;97858.56;;;7.77;62.37
80945;BME280;70400;50.934;11.590;2024-02-23T03:58:37;97851.06;;;7.74;62.00
80945;BME280;70400;50.934;11.590;2024-02-23T03:59:28;97857.00;;;7.68;62.49
80945;BME280;70400;50.934;11.590;2024-02-23T04:00:18;97861.00;;;7.64;62.80
80945;BME280;70400;50.934;11.590;2024-02-23T04:01:11;97861.81;;;7.64;62.63
80945;BME280;70400;50.934;11.590;2024-02-23T04:02:02;97862.63;;;7.65;63.00
80945;BME280;70400;50.934;11.590;2024-02-23T04:02:54;97867.22;;;7.63;63.38
80945;BME280;70400;50.934;11.590;2024-02-23T04:03:48;97873.75;;;7.67;63.25
80945;BME280;70400;50.934;11.590;2024-02-23T04:04:39;97869.66;;;7.64;63.23
80945;BME280;70400;50.934;11.590;2024-02-23T04:05:29;97868.56;;;7.58;63.00
80945;BME280;70400;50.934;11.590;2024-02-23T04:06:20;97854.81;;;7.56;63.53
80945;BME280;70400;50.934;11.590;2024-02-23T04:07:11;97861.75;;;7.49;63.91
80945;BME280;70400;50.934;11.590;2024-02-23T04:08:02;97861.41;;;7.52;63.83
80945;BME280;70400;50.934;11.590;2024-02-23T04:08:56;97865.47;;;7.55;63.81
80945;BME280;70400;50.934;11.590;2024-02-23T04:09:47;97859.25;;;7.56;63.86
80945;BME280;70400;50.934;11.590;2024-02-23T04:10:43;97856.06;;;7.60;63.82
80945;BME280;70400;50.934;11.590;2024-02-23T04:11:34;97856.44;;;7.57;64.03
80945;BME280;70400;50.934;11.590;2024-02-23T04:12:25;97859.59;;;7.53;64.73
80945;BME280;70400;50.934;11.590;2024-02-23T04:13:16;97865.38;;;7.48;64.79
80945;BME280;70400;50.934;11.590;2024-02-23T04:14:08;97872.69;;;7.53;64.82
80945;BME280;70400;50.934;11.590;2024-02-23T04:14:59;97864.22;;;7.51;64.81
80945;BME280;70400;50.934;11.590;2024-02-23T04:15:50;97870.13;;;7.45;65.43
80945;BME280;70400;50.934;11.590;2024-02-23T04:16:40;97872.06;;;7.51;65.32
80945;BME280;70400;50.934;11.590;2024-02-23T04:17:32;97872.59;;;7.46;65.15
80945;BME280;70400;50.934;11.590;2024-02-23T04:18:23;97872.31;;;7.41;65.82
80945;BME280;70400;50.934;11.590;2024-02-23T04:19:13;97870.50;;;7.42;65.87
80945;BME280;70400;50.934;11.590;2024-02-23T04:20:08;97876.09;;;7.38;66.00
80945;BME280;70400;50.934;11.590;2024-02-23T04:21:00;97877.91;;;7.38;66.07
80945;BME280;70400;50.934;11.590;2024-02-23T04:21:51;97883.16;;;7.38;66.20
80945;BME280;70400;50.934;11.590;2024-02-23T04:22:42;97879.53;;;7.39;66.26
80945;BME280;70400;50.934;11.590;2024-02-23T04:23:33;97889.00;;;7.40;65.99
80945;BME280;70400;50.934;11.590;2024-02-23T04:24:24;97892.81;;;7.37;66.53
80945;BME280;70400;50.934;11.590;2024-02-23T04:25:16;97902.66;;;7.35;66.10
80945;BME280;70400;50.934;11.590;2024-02-23T04:26:08;97909.19;;;7.39;66.55
80945;BME280;70400;50.934;11.590;2024-02-23T04:26:59;97913.63;;;7.39;66.08
80945;BME280;70400;50.934;11.590;2024-02-23T04:27:50;97914.31;;;7.33;66.18
80945;BME280;70400;50.934;11.590;2024-02-23T04:28:41;97922.00;;;7.34;65.94
80945;BME280;70400;50.934;11.590;2024-02-23T04:29:33;97925.63;;;7.33;66.09
80945;BME280;70400;50.934;11.590;2024-02-23T04:30:24;97925.50;;;7.27;66.41